Time;durP1;ratioP1;P1;durP2;ratioP2;P2;SDS_P1;SDS_P2;PMS_P1;PMS_P2;Temp;Humidity;BMP_temperature;BMP_pressure;BME280_temperature;BME280_humidity;BME280_pressure;Samples;Min_cycle;Max_cycle;Signal;HPM_P1;HPM_P2
2023/11/13 00:16:26;;;;;;;19.90;3.10;;;;;;;10.98;100.00;98085.34;5003273;28;20029;-96
2023/11/13 00:19:19;;;;;;;27.23;3.05;;;;;;;10.94;100.00;98058.50;4985236;28;20050;-96
2023/11/13 00:25:48;;;;;;;23.80;3.03;;;;;;;10.91;100.00;98024.56;4970244;28;20110;-95
2023/11/13 01:26:53;;;;;;;6.80;1.08;;;;;;;10.56;100.00;97724.50;4913930;29;19929;-95
2023/11/13 01:29:18;;;;;;;6.25;0.73;;;;;;;10.54;100.00;97713.38;4937589;28;20284;-95
2023/11/13 01:31:45;;;;;;;6.97;1.10;;;;;;;10.57;100.00;97704.19;4942298;28;20074;-94
2023/11/13 01:34:12;;;;;;;8.73;1.23;;;;;;;10.54;100.00;97679.81;4941463;28;20061;-94
2023/11/13 01:36:45;;;;;;;2.42;0.57;;;;;;;10.69;100.00;97670.00;4943013;28;20502;-95
2023/11/13 01:39:18;;;;;;;5.68;1.13;;;;;;;10.70;100.00;97659.22;4957835;28;20070;-94
2023/11/13 01:41:45;;;;;;;2.83;0.75;;;;;;;10.60;100.00;97638.56;4946445;28;20038;-94
2023/11/13 01:45:02;;;;;;;4.57;0.60;;;;;;;10.72;100.00;97614.88;4940096;28;20045;-95
2023/11/13 01:47:31;;;;;;;2.78;0.57;;;;;;;10.62;100.00;97602.16;4946084;28;20499;-95
2023/11/13 01:50:28;;;;;;;4.72;0.32;;;;;;;10.77;100.00;97587.81;4947897;28;20077;-95
2023/11/13 01:52:54;;;;;;;1.63;0.30;;;;;;;10.72;100.00;97577.91;4943569;28;20038;-94
2023/11/13 01:55:21;;;;;;;2.85;0.20;;;;;;;10.71;100.00;97568.38;4958275;28;20050;-95
2023/11/13 01:58:07;;;;;;;2.90;0.30;;;;;;;10.78;100.00;97561.19;4975369;28;20486;-95
2023/11/13 02:00:39;;;;;;;;;;;;;;;10.74;100.00;97551.28;4970623;28;20042;-95
2023/11/13 02:03:10;;;;;;;1.00;0.20;;;;;;;10.73;100.00;97507.41;4937830;28;19913;-95
2023/11/13 02:05:38;;;;;;;3.40;0.50;;;;;;;10.73;100.00;97497.66;4957907;28;20066;-94
2023/11/13 02:11:45;;;;;;;3.53;0.15;;;;;;;10.72;100.00;97466.94;4964163;28;20124;-95
2023/11/13 02:14:31;;;;;;;1.05;0.20;;;;;;;10.82;100.00;97468.28;4951153;28;20049;-96
2023/11/13 02:17:04;;;;;;;1.95;0.20;;;;;;;10.83;100.00;97435.56;4943811;28;20117;-95
2023/11/13 02:19:35;;;;;;;1.13;0.20;;;;;;;10.85;100.00;97413.16;4956279;28;20410;-94
2023/11/13 02:22:05;;;;;;;1.65;0.20;;;;;;;10.77;100.00;97389.69;4983356;28;20038;-96
2023/11/13 02:24:34;;;;;;;0.52;0.10;;;;;;;10.84;100.00;97371.94;4969513;28;20048;-96
2023/11/13 02:27:09;;;;;;;0.60;0.10;;;;;;;10.93;100.00;97367.13;4962004;28;20049;-94
2023/11/13 02:30:01;;;;;;;1.67;0.32;;;;;;;10.89;100.00;97340.34;4983144;28;20057;-94
2023/11/13 02:32:27;;;;;;;0.25;0.00;;;;;;;10.87;100.00;97315.19;4983749;28;20034;-94
2023/11/13 02:38:57;;;;;;;0.10;0.10;;;;;;;10.92;100.00;97257.97;5016475;28;20048;-94
2023/11/13 02:41:23;;;;;;;0.28;0.10;;;;;;;11.03;100.00;97232.63;4977894;28;20034;-95
2023/11/13 02:43:51;;;;;;;0.38;0.05;;;;;;;11.02;100.00;97211.72;4973387;28;20042;-94
2023/11/13 02:46:20;;;;;;;0.63;0.00;;;;;;;11.08;100.00;97196.78;4982650;28;20030;-95
2023/11/13 02:48:46;;;;;;;0.00;0.00;;;;;;;11.15;100.00;97176.31;4982660;28;20041;-95
2023/11/13 02:51:14;;;;;;;0.00;0.00;;;;;;;11.23;100.00;97159.31;4973111;28;20030;-95
2023/11/13 02:53:54;;;;;;;0.00;0.00;;;;;;;11.38;100.00;97124.47;4967525;28;20140;-94
2023/11/13 02:56:20;;;;;;;0.20;0.00;;;;;;;11.43;100.00;97113.22;4963516;28;20038;-95
2023/11/13 02:58:50;;;;;;;0.65;0.00;;;;;;;11.57;100.00;97105.81;4965970;28;20042;-95
2023/11/13 03:01:20;;;;;;;0.00;0.00;;;;;;;11.66;100.00;97059.44;4964365;28;20084;-96
2023/11/13 03:08:24;;;;;;;0.95;0.20;;;;;;;11.86;100.00;97052.94;4949978;28;20090;-95
2023/11/13 03:11:17;;;;;;;0.00;0.00;;;;;;;11.88;100.00;97040.28;4905230;29;20040;-94
2023/11/13 03:17:52;;;;;;;;;;;;;;;11.95;100.00;97009.16;4962927;28;20690;-96
2023/11/13 03:20:18;;;;;;;0.40;0.10;;;;;;;11.93;100.00;96978.69;4941071;29;19922;-96
2023/11/13 03:23:27;;;;;;;0.70;0.10;;;;;;;12.03;100.00;96962.97;4942739;29;20040;-95
2023/11/13 03:26:29;;;;;;;;;;;;;;;;;;;;;
2023/11/13 03:29:35;;;;;;;;;;;;;;;;;;;;;
2023/11/13 03:32:54;;;;;;;0.38;0.00;;;;;;;12.02;100.00;96927.75;4964754;28;20048;-95
2023/11/13 03:40:11;;;;;;;0.10;0.00;;;;;;;12.18;100.00;96879.56;4888582;29;20110;-96
2023/11/13 03:43:14;;;;;;;0.40;0.00;;;;;;;12.24;100.00;96875.94;4906200;29;20035;-96
2023/11/13 03:51:17;;;;;;;2.28;0.10;;;;;;;12.46;100.00;96862.75;4879554;29;20040;-95
2023/11/13 03:54:23;;;;;;;0.10;0.10;;;;;;;12.55;100.00;96833.97;4838889;29;20083;-95
2023/11/13 03:57:57;;;;;;;3.53;0.20;;;;;;;12.69;100.00;96815.88;4882669;29;20106;-96
2023/11/13 04:01:23;;;;;;;0.68;0.20;;;;;;;12.73;100.00;96811.66;4912759;28;20034;-96
2023/11/13 04:09:17;;;;;;;1.40;0.50;;;;;;;12.87;100.00;96798.00;4964548;28;20043;-96
2023/11/13 04:12:29;;;;;;;9.48;1.65;;;;;;;12.87;100.00;96777.59;4998809;28;20022;-96
2023/11/13 04:35:04;;;;;;;10.30;1.05;;;;;;;12.75;100.00;96849.31;4879307;29;20047;-96
2023/11/13 04:42:13;;;;;;;2.85;0.20;;;;;;;12.42;100.00;96876.72;5012333;28;20041;-96
2023/11/13 04:45:51;;;;;;;2.45;0.40;;;;;;;12.19;100.00;96854.69;4970453;28;20042;-96
2023/11/13 04:48:58;;;;;;;0.85;0.20;;;;;;;11.89;100.00;96894.50;4975598;28;20034;-96
2023/11/13 04:51:57;;;;;;;0.35;0.10;;;;;;;11.66;100.00;96884.84;4971333;28;20046;-95
2023/11/13 04:54:46;;;;;;;0.30;0.13;;;;;;;11.45;100.00;96889.78;4959224;28;20043;-96
2023/11/13 04:58:08;;;;;;;0.77;0.20;;;;;;;11.36;100.00;96907.91;4973884;28;20034;-96
2023/11/13 05:01:00;;;;;;;1.25;0.15;;;;;;;11.29;100.00;96912.53;4947367;28;20049;-96
2023/11/13 05:07:43;;;;;;;2.03;0.20;;;;;;;11.08;100.00;96953.63;4860997;29;20093;-96
2023/11/13 05:10:31;;;;;;;1.13;0.10;;;;;;;10.89;100.00;96964.34;4865138;29;20517;-96
2023/11/13 05:13:51;;;;;;;2.67;0.20;;;;;;;10.71;100.00;96997.00;4846930;29;20146;-96
2023/11/13 05:16:52;;;;;;;0.45;0.10;;;;;;;10.44;100.00;97003.50;4860949;29;20064;-96
2023/11/13 05:20:28;;;;;;;0.75;0.13;;;;;;;10.27;100.00;97020.00;4844041;29;20065;-96
2023/11/13 05:27:13;;;;;;;2.72;0.55;;;;;;;10.05;100.00;97017.09;4777348;29;20047;-96
2023/11/13 05:34:45;;;;;;;5.43;0.45;;;;;;;9.96;100.00;97031.66;4847832;29;20061;-96
2023/11/13 05:37:22;;;;;;;4.40;0.30;;;;;;;9.91;100.00;97027.03;4849637;29;20049;-96
2023/11/13 05:40:19;;;;;;;6.90;0.80;;;;;;;9.89;100.00;97048.38;4910519;28;20063;-95
2023/11/13 05:43:07;;;;;;;4.88;0.60;;;;;;;9.91;100.00;97053.44;4972187;28;20032;-96
2023/11/13 05:46:08;;;;;;;3.65;0.47;;;;;;;9.87;100.00;97063.63;4980080;28;20041;-96
2023/11/13 05:48:45;;;;;;;5.28;0.60;;;;;;;9.90;100.00;97080.84;5006246;28;20458;-96
2023/11/13 05:51:22;;;;;;;3.25;0.43;;;;;;;9.84;100.00;97063.28;4968117;28;20041;-96
2023/11/13 05:54:20;;;;;;;1.80;0.40;;;;;;;9.70;100.00;97073.97;4989778;28;20052;-96
2023/11/13 06:10:58;;;;;;;7.07;0.80;;;;;;;9.92;100.00;97110.44;5187107;27;21184;-96
2023/11/13 06:13:25;;;;;;;3.63;0.47;;;;;;;9.85;100.00;97101.81;5131493;27;20045;-96
2023/11/13 06:15:52;;;;;;;3.90;0.47;;;;;;;9.87;100.00;97119.03;5108571;22;20066;-96
2023/11/13 06:18:20;;;;;;;3.08;0.40;;;;;;;9.84;100.00;97105.47;5074446;28;20090;-96
2023/11/13 06:20:48;;;;;;;1.73;0.20;;;;;;;9.76;100.00;97138.25;5094305;28;20810;-96
2023/11/13 06:23:13;;;;;;;2.08;0.20;;;;;;;9.75;100.00;97139.25;5091263;28;20052;-95
2023/11/13 06:25:42;;;;;;;4.55;0.28;;;;;;;9.65;100.00;97152.97;5090989;28;20044;-96
2023/11/13 06:28:08;;;;;;;0.85;0.25;;;;;;;9.69;100.00;97151.50;5073683;28;20027;-96
2023/11/13 06:30:34;;;;;;;1.95;0.30;;;;;;;9.58;100.00;97124.03;5067342;28;20032;-94
2023/11/13 06:33:02;;;;;;;2.38;0.30;;;;;;;9.64;100.00;97153.97;5076786;28;20047;-96
2023/11/13 06:35:28;;;;;;;1.25;0.15;;;;;;;9.58;100.00;97133.75;5073624;28;20071;-96
2023/11/13 06:37:54;;;;;;;1.35;0.30;;;;;;;9.57;100.00;97155.88;5084111;28;20432;-94
2023/11/13 06:40:20;;;;;;;1.83;0.20;;;;;;;9.59;100.00;97124.84;5107427;28;20379;-96
2023/11/13 06:42:46;;;;;;;2.95;0.20;;;;;;;9.56;100.00;97176.16;5072724;28;20031;-96
2023/11/13 06:45:14;;;;;;;2.97;0.30;;;;;;;9.63;100.00;97186.66;5094077;28;20031;-96
2023/11/13 06:47:43;;;;;;;2.13;0.20;;;;;;;9.57;100.00;97198.06;5074471;28;20102;-96
2023/11/13 06:50:09;;;;;;;2.05;0.20;;;;;;;9.53;100.00;97201.16;5076033;28;20019;-96
2023/11/13 06:52:34;;;;;;;1.95;0.38;;;;;;;9.50;100.00;97224.50;5090887;28;20039;-95
2023/11/13 06:55:01;;;;;;;4.20;0.50;;;;;;;9.44;100.00;97249.91;5077744;28;20024;-96
2023/11/13 06:57:27;;;;;;;1.85;0.45;;;;;;;9.37;100.00;97235.97;5088449;28;20035;-96
2023/11/13 06:59:53;;;;;;;0.93;0.30;;;;;;;9.34;100.00;97237.22;5081261;28;20047;-94
2023/11/13 07:02:21;;;;;;;4.72;0.93;;;;;;;9.29;100.00;97263.41;5090580;28;20164;-96
2023/11/13 07:04:47;;;;;;;12.48;0.60;;;;;;;9.29;100.00;97276.56;5075096;28;20024;-96
2023/11/13 07:07:13;;;;;;;3.30;0.52;;;;;;;9.24;100.00;97277.22;5078415;28;20028;-96
2023/11/13 07:09:40;;;;;;;8.57;0.80;;;;;;;9.21;100.00;97272.38;5093677;28;20024;-96
2023/11/13 07:12:07;;;;;;;4.22;0.52;;;;;;;9.20;100.00;97289.22;5067042;28;20032;-96
2023/11/13 07:14:34;;;;;;;5.22;0.90;;;;;;;9.25;100.00;97278.81;5065164;28;20035;-96
2023/11/13 07:17:00;;;;;;;6.38;1.02;;;;;;;9.26;100.00;97292.81;5090381;28;20596;-96
2023/11/13 07:19:26;;;;;;;7.22;0.77;;;;;;;9.28;100.00;97290.78;5069884;28;20051;-96
2023/11/13 07:21:51;;;;;;;8.80;1.00;;;;;;;9.32;100.00;97315.69;5087106;28;20028;-96
2023/11/13 07:24:18;;;;;;;9.77;1.23;;;;;;;9.35;100.00;97314.47;5064789;28;20033;-95
2023/11/13 07:26:43;;;;;;;6.28;1.48;;;;;;;9.40;100.00;97330.44;5064898;28;20474;-96
2023/11/13 07:29:10;;;;;;;8.00;1.27;;;;;;;9.47;100.00;97338.28;5061976;28;20027;-95
2023/11/13 07:31:35;;;;;;;10.13;1.20;;;;;;;9.36;100.00;97335.34;5061975;28;20059;-96
2023/11/13 07:34:01;;;;;;;8.48;1.13;;;;;;;9.40;100.00;97333.06;5063278;28;20088;-96
2023/11/13 07:36:27;;;;;;;9.95;2.65;;;;;;;9.45;100.00;97322.69;5063937;28;20059;-96
2023/11/13 07:38:53;;;;;;;10.40;1.50;;;;;;;9.43;100.00;97351.09;5082970;28;20473;-96
2023/11/13 07:41:19;;;;;;;7.28;1.13;;;;;;;9.47;100.00;97372.56;5091671;28;20020;-96
2023/11/13 07:43:47;;;;;;;13.02;2.05;;;;;;;9.47;100.00;97365.47;5081789;28;20039;-96
2023/11/13 07:46:14;;;;;;;8.65;1.25;;;;;;;9.43;100.00;97370.34;5074488;28;20028;-96
2023/11/13 07:48:40;;;;;;;10.25;1.38;;;;;;;9.38;100.00;97393.91;5042463;28;20032;-96
2023/11/13 07:51:07;;;;;;;12.63;1.83;;;;;;;9.46;100.00;97419.22;5060659;28;20028;-95
2023/11/13 07:53:38;;;;;;;8.88;1.45;;;;;;;9.47;100.00;97405.03;5081669;28;20093;-95
2023/11/13 07:56:09;;;;;;;6.60;1.30;;;;;;;9.51;100.00;97416.75;5062089;28;20123;-96
2023/11/13 07:58:35;;;;;;;9.50;1.30;;;;;;;9.52;100.00;97436.81;5078261;28;20169;-96
2023/11/13 08:01:00;;;;;;;9.55;1.30;;;;;;;9.55;100.00;97438.22;5070712;28;20024;-96
2023/11/13 08:03:26;;;;;;;9.55;1.45;;;;;;;9.55;100.00;97435.59;5070811;28;20036;-96
2023/11/13 08:05:52;;;;;;;7.97;1.08;;;;;;;9.60;100.00;97441.06;5078874;28;20034;-95
2023/11/13 08:08:18;;;;;;;7.40;1.20;;;;;;;9.62;100.00;97441.63;5059220;28;20024;-96
2023/11/13 08:10:47;;;;;;;10.77;1.38;;;;;;;9.64;100.00;97444.88;5085005;28;20940;-96
2023/11/13 08:13:16;;;;;;;9.95;1.10;;;;;;;9.65;100.00;97446.47;5092693;28;20030;-96
2023/11/13 08:15:42;;;;;;;16.25;1.88;;;;;;;9.72;100.00;97485.19;5081076;28;20063;-96
2023/11/13 08:18:14;;;;;;;9.05;1.50;;;;;;;9.78;100.00;97490.44;5056690;28;20028;-96
2023/11/13 08:20:46;;;;;;;10.50;1.23;;;;;;;9.77;100.00;97474.81;5059984;28;20032;-96
2023/11/13 08:23:16;;;;;;;10.77;1.17;;;;;;;9.75;100.00;97501.41;5057693;28;20035;-95
2023/11/13 08:25:43;;;;;;;11.68;1.13;;;;;;;9.79;100.00;97509.72;5061903;28;20032;-96
2023/11/13 08:28:10;;;;;;;11.45;1.85;;;;;;;9.82;100.00;97516.38;5061149;28;20104;-96
2023/11/13 08:30:36;;;;;;;11.27;1.42;;;;;;;9.89;100.00;97533.00;5072333;28;20035;-96
2023/11/13 08:33:04;;;;;;;11.18;1.67;;;;;;;9.89;100.00;97523.22;5066892;28;20028;-96
2023/11/13 08:35:34;;;;;;;13.70;2.20;;;;;;;9.89;100.00;97514.53;5093705;28;20020;-96
2023/11/13 08:38:01;;;;;;;14.38;1.83;;;;;;;9.92;100.00;97557.09;5055210;28;20032;-96
2023/11/13 08:40:29;;;;;;;11.85;1.35;;;;;;;9.99;100.00;97558.88;5060340;28;20496;-94
2023/11/13 08:42:56;;;;;;;12.90;1.65;;;;;;;10.02;100.00;97571.66;5061516;28;20080;-96
2023/11/13 08:45:24;;;;;;;10.25;1.30;;;;;;;9.96;100.00;97560.13;5060847;28;20032;-95
2023/11/13 08:47:53;;;;;;;10.60;1.90;;;;;;;9.95;100.00;97565.63;5077690;28;20034;-96
2023/11/13 08:50:21;;;;;;;8.73;1.42;;;;;;;10.02;100.00;97583.03;5075694;28;20084;-93
2023/11/13 08:52:48;;;;;;;16.20;2.45;;;;;;;10.01;100.00;97578.78;5105854;28;20032;-96
2023/11/13 08:55:17;;;;;;;16.20;2.45;;;;;;;9.95;100.00;97587.56;5074272;28;20180;-96
2023/11/13 08:57:57;;;;;;;14.15;1.88;;;;;;;10.04;100.00;97609.22;5065288;28;20021;-96
2023/11/13 09:00:30;;;;;;;11.63;1.98;;;;;;;9.99;100.00;97588.75;5083603;28;20020;-96
2023/11/13 09:03:04;;;;;;;15.70;2.67;;;;;;;10.04;100.00;97612.66;5080535;28;20036;-96
2023/11/13 09:05:35;;;;;;;12.07;1.90;;;;;;;10.05;100.00;97629.28;5063944;28;20048;-96
2023/11/13 09:08:02;;;;;;;14.57;2.10;;;;;;;10.06;100.00;97628.28;5065081;28;20028;-96
2023/11/13 09:10:44;;;;;;;11.00;1.73;;;;;;;10.09;100.00;97624.41;5083139;28;20044;-96
2023/11/13 09:13:23;;;;;;;12.88;1.80;;;;;;;10.16;100.00;97656.88;5102186;28;20050;-96
2023/11/13 09:15:49;;;;;;;21.23;2.20;;;;;;;10.13;100.00;97646.75;5071422;28;20051;-96
2023/11/13 09:18:15;;;;;;;18.20;2.60;;;;;;;10.20;100.00;97662.53;5098197;28;20435;-96
2023/11/13 09:21:18;;;;;;;14.93;2.10;;;;;;;10.30;100.00;97671.59;5090233;28;20046;-96
2023/11/13 09:23:52;;;;;;;16.43;2.13;;;;;;;10.27;100.00;97681.78;5079822;28;20032;-96
2023/11/13 09:26:49;;;;;;;15.23;2.72;;;;;;;10.33;100.00;97672.22;5099591;28;20461;-96
2023/11/13 09:29:46;;;;;;;17.45;2.03;;;;;;;10.36;100.00;97680.53;5067290;28;20178;-96
2023/11/13 09:32:12;;;;;;;11.15;2.22;;;;;;;10.37;100.00;97689.22;5076444;28;20012;-96
2023/11/13 09:34:41;;;;;;;12.02;1.75;;;;;;;10.38;100.00;97696.94;5083394;28;20048;-96
2023/11/13 09:37:08;;;;;;;15.15;3.08;;;;;;;10.47;100.00;97709.94;5083475;28;20025;-96
2023/11/13 09:39:42;;;;;;;19.48;2.25;;;;;;;10.52;100.00;97715.41;5064103;28;20060;-96
2023/11/13 09:43:07;;;;;;;9.77;1.95;;;;;;;10.64;100.00;97726.91;5111049;28;20052;-96
2023/11/13 09:45:42;;;;;;;12.52;2.00;;;;;;;10.68;100.00;97732.59;5078175;28;20034;-96
2023/11/13 09:48:07;;;;;;;14.35;3.00;;;;;;;10.63;100.00;97743.78;5066164;28;20111;-96
2023/11/13 09:50:50;;;;;;;17.30;2.83;;;;;;;10.64;100.00;97744.59;5097330;28;20021;-95
2023/11/13 09:53:20;;;;;;;8.50;2.35;;;;;;;10.71;100.00;97761.22;5070933;28;20362;-95
2023/11/13 09:55:48;;;;;;;16.48;3.00;;;;;;;10.70;100.00;97761.44;5066813;28;20591;-96
2023/11/13 09:58:16;;;;;;;16.77;2.67;;;;;;;10.73;100.00;97761.00;5064598;28;20108;-96
2023/11/13 10:00:51;;;;;;;9.20;1.52;;;;;;;10.73;100.00;97780.31;5084500;28;20032;-96
2023/11/13 10:03:32;;;;;;;15.27;2.00;;;;;;;10.74;100.00;97789.84;5086532;28;20034;-96
2023/11/13 10:06:01;;;;;;;16.50;2.25;;;;;;;10.77;100.00;97794.72;5064068;28;20047;-96
2023/11/13 10:12:14;;;;;;;14.68;2.15;;;;;;;10.91;100.00;97827.16;5110184;28;20025;-96
2023/11/13 10:15:00;;;;;;;17.35;1.45;;;;;;;10.87;100.00;97825.16;5070042;28;20527;-96
2023/11/13 10:17:48;;;;;;;11.93;1.88;;;;;;;10.86;100.00;97849.97;5069830;28;20397;-96
2023/11/13 10:20:42;;;;;;;16.02;1.80;;;;;;;10.89;100.00;97862.75;5086833;28;20032;-96
2023/11/13 10:23:09;;;;;;;8.57;1.48;;;;;;;10.77;100.00;97866.06;5066786;28;20048;-96
2023/11/13 10:26:02;;;;;;;12.13;1.98;;;;;;;10.74;100.00;97857.72;5078281;28;20085;-96
2023/11/13 10:28:36;;;;;;;12.82;2.58;;;;;;;10.63;100.00;97867.94;5059376;28;20024;-96
2023/11/13 10:31:12;;;;;;;12.20;1.17;;;;;;;10.62;100.00;97865.50;5059535;28;20040;-96
2023/11/13 10:33:59;;;;;;;9.30;2.00;;;;;;;10.67;100.00;97886.84;5110802;28;20040;-96
2023/11/13 10:36:29;;;;;;;11.20;2.08;;;;;;;10.58;100.00;97898.63;5069199;28;20044;-96
2023/11/13 10:39:12;;;;;;;15.38;2.28;;;;;;;10.59;100.00;97897.63;5073244;28;20047;-96
2023/11/13 10:42:27;;;;;;;17.52;2.38;;;;;;;10.52;100.00;97926.69;5091022;28;20036;-96
2023/11/13 10:44:59;;;;;;;14.15;1.92;;;;;;;10.43;100.00;97926.88;5085804;28;20047;-96
2023/11/13 10:47:30;;;;;;;7.55;1.23;;;;;;;10.42;100.00;97922.63;5089662;28;20082;-96
2023/11/13 10:50:18;;;;;;;9.20;1.60;;;;;;;10.41;100.00;97933.38;5104627;28;20071;-96
2023/11/13 10:52:51;;;;;;;12.02;1.92;;;;;;;10.51;100.00;97923.22;5092959;22;22200;-94
2023/11/13 10:55:19;;;;;;;9.35;1.48;;;;;;;10.53;100.00;97936.22;5103637;28;20047;-94
2023/11/13 10:57:47;;;;;;;7.20;1.40;;;;;;;10.61;100.00;97951.03;5074268;28;20042;-95
2023/11/13 11:00:14;;;;;;;10.80;1.65;;;;;;;10.69;100.00;97963.25;5060444;23;20040;-95
2023/11/13 11:02:45;;;;;;;14.68;2.42;;;;;;;10.73;100.00;97962.63;5069918;28;20035;-94
2023/11/13 11:05:30;;;;;;;21.38;2.38;;;;;;;10.80;100.00;97989.00;5051046;28;20134;-92
2023/11/13 11:07:58;;;;;;;18.52;2.47;;;;;;;10.79;100.00;97971.53;5077419;28;20040;-95
2023/11/13 11:10:25;;;;;;;17.63;2.88;;;;;;;10.85;100.00;97989.22;5067600;28;20076;-93
2023/11/13 11:13:05;;;;;;;12.00;2.63;;;;;;;10.90;100.00;97999.16;5068016;28;20107;-93
2023/11/13 11:16:13;;;;;;;16.10;2.15;;;;;;;11.04;100.00;97997.28;5069768;28;20028;-94
2023/11/13 11:18:48;;;;;;;15.57;2.28;;;;;;;11.11;100.00;97998.09;5049202;28;20107;-94
2023/11/13 11:21:35;;;;;;;19.50;2.08;;;;;;;11.14;100.00;98008.25;5054172;28;20435;-94
2023/11/13 11:24:40;;;;;;;10.90;1.65;;;;;;;11.29;100.00;98002.69;5085069;28;20488;-93
2023/11/13 11:27:05;;;;;;;14.25;2.30;;;;;;;11.25;100.00;98006.78;5075418;28;20139;-94
2023/11/13 11:29:40;;;;;;;17.90;2.67;;;;;;;11.39;100.00;98027.88;5066463;28;20440;-95
2023/11/13 11:32:15;;;;;;;11.13;1.97;;;;;;;11.50;100.00;98029.88;5055354;28;20039;-94
2023/11/13 11:34:43;;;;;;;12.73;2.20;;;;;;;11.50;100.00;98024.56;5070711;28;20536;-95
2023/11/13 11:37:14;;;;;;;15.55;2.80;;;;;;;11.64;100.00;98027.97;5073830;28;20036;-94
2023/11/13 11:39:51;;;;;;;16.40;2.67;;;;;;;11.72;100.00;98034.84;5065935;28;20401;-96
2023/11/13 11:42:20;;;;;;;11.93;1.98;;;;;;;11.72;100.00;98029.56;5069653;28;20256;-94
2023/11/13 11:44:58;;;;;;;13.55;1.90;;;;;;;11.78;100.00;98034.00;5072242;28;20040;-95
2023/11/13 11:47:25;;;;;;;16.15;2.28;;;;;;;11.78;100.00;98051.72;5071946;28;20553;-94
2023/11/13 11:49:58;;;;;;;15.05;2.25;;;;;;;11.79;100.00;98056.81;5054398;28;20036;-95
2023/11/13 11:52:53;;;;;;;18.38;2.38;;;;;;;11.82;100.00;98034.38;5054759;28;20089;-94
2023/11/13 11:55:21;;;;;;;16.13;3.03;;;;;;;11.63;100.00;98050.16;5075538;28;20028;-94
2023/11/13 11:57:47;;;;;;;11.95;1.90;;;;;;;11.47;100.00;98069.16;5067071;28;20044;-95
2023/11/13 12:00:20;;;;;;;15.00;2.38;;;;;;;11.42;100.00;98056.56;5054353;28;20527;-93
2023/11/13 12:02:47;;;;;;;14.23;2.35;;;;;;;11.33;100.00;98065.75;5072230;28;20028;-93
2023/11/13 12:05:19;;;;;;;10.25;2.20;;;;;;;11.33;100.00;98063.91;5069709;28;20048;-94
2023/11/13 12:07:47;;;;;;;24.25;1.70;;;;;;;11.30;100.00;98059.03;5059698;28;20028;-93
2023/11/13 12:10:13;;;;;;;14.20;2.13;;;;;;;11.33;100.00;98076.31;5068360;28;20035;-95
2023/11/13 12:12:41;;;;;;;11.07;1.85;;;;;;;11.45;100.00;98081.78;5056451;28;20044;-94
2023/11/13 12:15:11;;;;;;;11.45;2.60;;;;;;;11.63;100.00;98083.75;5071192;28;20036;-95
2023/11/13 12:17:37;;;;;;;14.18;2.10;;;;;;;11.65;100.00;98079.88;5052436;28;20071;-94
2023/11/13 12:20:09;;;;;;;24.50;3.35;;;;;;;11.69;100.00;98077.59;5082142;28;20043;-94
2023/11/13 12:22:39;;;;;;;19.05;3.00;;;;;;;11.87;100.00;98095.47;5054147;28;20044;-94
2023/11/13 12:25:06;;;;;;;15.52;2.58;;;;;;;12.05;100.00;98091.28;5047146;28;20315;-94
2023/11/13 12:27:34;;;;;;;16.30;2.20;;;;;;;12.26;100.00;98084.06;5079364;28;20118;-94
2023/11/13 12:30:05;;;;;;;18.95;4.30;;;;;;;12.32;100.00;98093.00;5067877;28;20139;-95
2023/11/13 12:32:35;;;;;;;14.38;2.90;;;;;;;12.47;100.00;98101.44;5065545;28;20490;-94
2023/11/13 12:35:04;;;;;;;12.80;2.20;;;;;;;12.52;100.00;98100.78;5082275;28;20934;-95
2023/11/13 12:37:30;;;;;;;13.20;2.65;;;;;;;12.48;100.00;98102.25;5055352;28;20028;-94
2023/11/13 12:40:00;;;;;;;20.40;2.85;;;;;;;12.47;100.00;98113.91;5070863;28;20040;-94
2023/11/13 12:42:26;;;;;;;14.25;2.70;;;;;;;12.41;100.00;98110.25;5066565;28;20035;-95
2023/11/13 12:44:55;;;;;;;14.52;2.03;;;;;;;12.47;100.00;98114.69;5070160;28;20038;-95
2023/11/13 12:47:22;;;;;;;23.75;2.50;;;;;;;12.52;100.00;98122.81;5064443;28;20040;-94
2023/11/13 12:49:49;;;;;;;22.10;2.80;;;;;;;12.51;100.00;98107.13;5070367;28;20031;-94
2023/11/13 12:52:18;;;;;;;16.23;3.08;;;;;;;12.46;100.00;98131.63;5062010;28;20032;-94
2023/11/13 12:54:55;;;;;;;23.98;3.60;;;;;;;12.40;100.00;98138.59;5066496;28;20512;-94
2023/11/13 12:57:23;;;;;;;14.73;2.25;;;;;;;12.28;100.00;98127.03;5069866;28;20092;-94
2023/11/13 12:59:48;;;;;;;15.88;2.70;;;;;;;12.20;100.00;98138.69;5046688;28;20074;-95
2023/11/13 13:02:15;;;;;;;19.48;2.55;;;;;;;12.12;100.00;98139.75;5078087;28;20032;-94
2023/11/13 13:04:41;;;;;;;14.82;2.20;;;;;;;12.08;100.00;98135.91;5050570;28;20028;-94
2023/11/13 13:07:08;;;;;;;14.52;2.28;;;;;;;12.06;100.00;98142.41;5065190;28;20081;-95
2023/11/13 13:09:38;;;;;;;13.93;2.90;;;;;;;12.09;100.00;98137.53;5050996;28;20047;-95
2023/11/13 13:12:05;;;;;;;16.77;2.95;;;;;;;12.07;100.00;98144.03;5051237;28;20036;-94
2023/11/13 13:14:31;;;;;;;25.00;3.28;;;;;;;12.10;100.00;98148.94;5049583;28;20028;-96
2023/11/13 13:17:06;;;;;;;20.02;4.32;;;;;;;12.08;100.00;98151.81;5081896;28;20028;-94
2023/11/13 13:19:37;;;;;;;20.92;3.35;;;;;;;12.07;100.00;98159.94;5085468;28;20081;-95
2023/11/13 13:22:06;;;;;;;20.92;4.53;;;;;;;12.10;100.00;98164.81;5055238;28;20037;-95
2023/11/13 13:24:33;;;;;;;20.63;3.97;;;;;;;12.13;100.00;98159.94;5052233;28;20059;-95
2023/11/13 13:27:00;;;;;;;17.58;3.25;;;;;;;12.17;100.00;98162.94;5063493;28;20039;-93
2023/11/13 13:29:25;;;;;;;17.70;3.88;;;;;;;12.22;100.00;98162.31;5063298;28;20036;-95
2023/11/13 13:31:51;;;;;;;20.92;3.42;;;;;;;12.24;100.00;98171.69;5069986;28;20105;-94
2023/11/13 13:34:18;;;;;;;18.52;3.05;;;;;;;12.30;100.00;98169.19;5051505;28;20583;-95
2023/11/13 13:36:45;;;;;;;24.65;3.40;;;;;;;12.31;100.00;98174.28;5067451;28;20036;-93
2023/11/13 13:39:17;;;;;;;23.63;3.00;;;;;;;12.32;100.00;98183.88;5049041;28;20033;-94
2023/11/13 13:41:43;;;;;;;20.25;3.03;;;;;;;12.28;100.00;98180.81;5067982;28;20055;-95
2023/11/13 13:44:12;;;;;;;22.48;3.63;;;;;;;12.36;100.00;98185.06;5070492;28;20032;-95
2023/11/13 13:46:42;;;;;;;18.00;3.47;;;;;;;12.52;100.00;98183.75;5054646;28;20060;-96
2023/11/13 13:49:08;;;;;;;19.00;3.40;;;;;;;12.50;100.00;98192.94;5066515;28;20500;-95
2023/11/13 13:51:37;;;;;;;29.92;4.22;;;;;;;12.48;100.00;98190.50;5061914;28;20052;-94
2023/11/13 13:54:08;;;;;;;17.65;3.25;;;;;;;12.46;100.00;98191.72;5054621;28;20032;-94
2023/11/13 13:56:35;;;;;;;25.52;5.18;;;;;;;12.33;100.00;98189.97;5046576;28;20044;-93
2023/11/13 13:59:08;;;;;;;25.40;3.60;;;;;;;12.23;100.00;98199.19;5069320;28;20060;-94
2023/11/13 14:01:36;;;;;;;27.88;4.45;;;;;;;12.14;100.00;98203.91;5076982;28;20470;-94
2023/11/13 14:04:02;;;;;;;19.17;3.63;;;;;;;12.10;100.00;98212.50;5059644;28;20036;-95
2023/11/13 14:06:28;;;;;;;21.58;3.55;;;;;;;12.02;100.00;98214.31;5061984;28;20085;-95
2023/11/13 14:08:54;;;;;;;31.40;4.95;;;;;;;11.99;100.00;98219.22;5045966;28;20374;-93
2023/11/13 14:11:21;;;;;;;25.20;3.92;;;;;;;11.95;100.00;98229.41;5051813;28;20112;-95
2023/11/13 14:13:48;;;;;;;19.42;4.13;;;;;;;11.89;100.00;98224.94;5067342;28;20035;-94
2023/11/13 14:16:14;;;;;;;27.73;4.75;;;;;;;11.86;100.00;98220.06;5050978;28;20478;-94
2023/11/13 14:18:40;;;;;;;26.80;4.05;;;;;;;11.85;100.00;98236.97;5060927;28;20216;-95
2023/11/13 14:21:08;;;;;;;24.38;4.40;;;;;;;11.82;100.00;98234.75;5060950;28;20040;-95
2023/11/13 14:23:34;;;;;;;20.35;4.20;;;;;;;11.77;100.00;98254.69;5052402;28;20024;-93
2023/11/13 14:26:00;;;;;;;25.98;4.50;;;;;;;11.75;100.00;98255.94;5070117;28;20166;-95
2023/11/13 14:28:26;;;;;;;27.38;3.67;;;;;;;11.75;100.00;98255.94;5074306;28;20154;-96
2023/11/13 14:30:52;;;;;;;24.80;4.05;;;;;;;11.75;100.00;98253.28;5046753;28;20043;-94
2023/11/13 14:33:18;;;;;;;40.00;4.47;;;;;;;11.82;100.00;98259.38;5072351;28;20439;-94
2023/11/13 14:35:44;;;;;;;25.73;4.40;;;;;;;11.88;100.00;98255.09;5036238;28;20466;-95
2023/11/13 14:38:11;;;;;;;19.77;3.42;;;;;;;11.87;100.00;98262.22;5074051;28;20035;-96
2023/11/13 14:40:39;;;;;;;33.38;6.10;;;;;;;11.87;100.00;98264.03;5074724;28;20592;-95
2023/11/13 14:43:05;;;;;;;32.47;4.88;;;;;;;11.82;100.00;98266.50;5054493;28;20024;-95
2023/11/13 14:45:31;;;;;;;25.05;3.83;;;;;;;11.84;100.00;98261.81;5050707;28;20047;-93